Brownsville, TX

6:11 AM CDT on April 25, 2015 (GMT -0500)
Brownsville-South Padre I International | | Change Station
CLOSE
Current Station
Airport
Location: Brownsville,
Elevation: 20 ft
Nearby Weather Stations

Elev 20 ft 25.91 °N, 97.42 °W | Updated 18 minutes ago

Overcast
Overcast
79 °F
Feels Like 79 °F
N
12
Wind Variable Wind from SE

Today
High -- | Low -- °F
--% Chance of Precip.
Yesterday
High -- | Low -- °F
Precip. -- in
6:57 AM 7:57 PM
Waxing Crescent, 45% visible
Pressure 29.70 in
Visibility 5.0 miles
Clouds Mostly Cloudy 1000 ft
Overcast 1500 ft
Dew Point 76 °F
Humidity 90%
Rainfall 0.04 in
Snow Depth Not available.
UV 0 out of 12
Pollen 8.00 out of 12
Air Quality Not available.
Flu Activity Local Activity
METAR KBRO 251053Z 13010KT 5SM BR BKN010 OVC015 26/24 A2970 RMK AO2 CIG 008V013 SLP055 T02610244

More Conditions Fewer Conditions

Pressure 29.70 in
Visibility 5.0 miles
Clouds Mostly Cloudy 1000 ft
Overcast 1500 ft
Dew Point 76 °F
Humidity 90%
Rainfall 0.04 in
Snow Depth Not available.
UV 0 out of 12
Pollen 8.00 out of 12
Air Quality Not available.
Flu Activity Local Activity
METAR KBRO 251053Z 13010KT 5SM BR BKN010 OVC015 26/24 A2970 RMK AO2 CIG 008V013 SLP055 T02610244

More Conditions Fewer Conditions

10-Day Weather Forecast

Almanac

Astronomy

Apr. 25, 2015 Rise Set
Actual Time
Civil Twilight
Nautical Twilight
Astronomical Twilight
Moon
Length of Visible Light
Length of Day
Tomorrow will be .
, % of the Moon is Illuminated

Today's Extremes

State Highs State Lows

Community

WunderPhotos

Upload Photos

1,816,638 photos uploaded!

WunderBlogs® & News

Nearby

Air Quality

  Air Quality AQ Index Pollutant
Not available.

Snow Depth

Station Depth Elevation

Earthquake Activity

City Distance Mag. Time & Date
Minimum magnitude displayed is 2.5.

Coastal Water Temperatures

Place Temperature

Stations

Nearby Weather Stations

Station Location Temp. Windchill Dew Point Humidity Wind Precip. Elev Updated Type